sensor_id;sensor_type;location;lat;lon;timestamp;P1;durP1;ratioP1;P2;durP2;ratioP2
5981;SDS011;3018;48.730;9.336;2022-11-15T00:01:45;9.90;;;7.57;;
5981;SDS011;3018;48.730;9.336;2022-11-15T00:04:11;11.90;;;7.93;;
5981;SDS011;3018;48.730;9.336;2022-11-15T00:06:37;9.68;;;8.15;;
5981;SDS011;3018;48.730;9.336;2022-11-15T00:09:05;9.00;;;7.85;;
5981;SDS011;3018;48.730;9.336;2022-11-15T00:11:31;13.02;;;9.32;;
5981;SDS011;3018;48.730;9.336;2022-11-15T00:13:57;12.02;;;9.48;;
5981;SDS011;3018;48.730;9.336;2022-11-15T00:16:26;10.95;;;9.27;;
5981;SDS011;3018;48.730;9.336;2022-11-15T00:18:53;12.05;;;9.20;;
5981;SDS011;3018;48.730;9.336;2022-11-15T00:21:19;12.55;;;9.40;;
5981;SDS011;3018;48.730;9.336;2022-11-15T00:23:46;12.57;;;9.18;;
5981;SDS011;3018;48.730;9.336;2022-11-15T00:26:14;11.77;;;8.80;;
5981;SDS011;3018;48.730;9.336;2022-11-15T00:28:40;13.18;;;8.82;;
5981;SDS011;3018;48.730;9.336;2022-11-15T00:31:09;11.30;;;8.30;;
5981;SDS011;3018;48.730;9.336;2022-11-15T00:33:35;8.98;;;8.10;;
5981;SDS011;3018;48.730;9.336;2022-11-15T00:36:01;10.50;;;8.23;;
5981;SDS011;3018;48.730;9.336;2022-11-15T00:38:32;11.65;;;8.35;;
5981;SDS011;3018;48.730;9.336;2022-11-15T00:40:59;12.10;;;8.68;;
5981;SDS011;3018;48.730;9.336;2022-11-15T00:43:26;10.23;;;8.02;;
5981;SDS011;3018;48.730;9.336;2022-11-15T00:45:53;10.48;;;8.43;;
5981;SDS011;3018;48.730;9.336;2022-11-15T00:48:19;9.80;;;7.93;;
5981;SDS011;3018;48.730;9.336;2022-11-15T00:50:45;8.82;;;7.90;;
5981;SDS011;3018;48.730;9.336;2022-11-15T00:53:11;9.80;;;7.78;;
5981;SDS011;3018;48.730;9.336;2022-11-15T00:55:38;10.15;;;8.30;;
5981;SDS011;3018;48.730;9.336;2022-11-15T00:58:04;9.73;;;8.00;;
5981;SDS011;3018;48.730;9.336;2022-11-15T01:00:32;11.23;;;8.32;;
5981;SDS011;3018;48.730;9.336;2022-11-15T01:02:58;10.88;;;8.00;;
5981;SDS011;3018;48.730;9.336;2022-11-15T01:05:25;10.25;;;7.82;;
5981;SDS011;3018;48.730;9.336;2022-11-15T01:07:51;14.10;;;8.68;;
5981;SDS011;3018;48.730;9.336;2022-11-15T01:10:18;10.75;;;8.43;;
5981;SDS011;3018;48.730;9.336;2022-11-15T01:12:45;12.07;;;8.02;;
5981;SDS011;3018;48.730;9.336;2022-11-15T01:15:11;10.15;;;7.93;;
5981;SDS011;3018;48.730;9.336;2022-11-15T01:17:39;11.05;;;8.27;;
5981;SDS011;3018;48.730;9.336;2022-11-15T01:20:06;11.48;;;8.35;;
5981;SDS011;3018;48.730;9.336;2022-11-15T01:22:33;12.30;;;7.82;;
5981;SDS011;3018;48.730;9.336;2022-11-15T01:24:59;11.13;;;7.93;;
5981;SDS011;3018;48.730;9.336;2022-11-15T01:27:25;10.82;;;7.75;;
5981;SDS011;3018;48.730;9.336;2022-11-15T01:29:52;12.27;;;7.38;;
5981;SDS011;3018;48.730;9.336;2022-11-15T01:32:18;9.50;;;7.55;;
5981;SDS011;3018;48.730;9.336;2022-11-15T01:34:46;10.43;;;7.53;;
5981;SDS011;3018;48.730;9.336;2022-11-15T01:37:12;8.35;;;7.22;;
5981;SDS011;3018;48.730;9.336;2022-11-15T01:39:38;11.70;;;7.47;;
5981;SDS011;3018;48.730;9.336;2022-11-15T01:42:04;7.57;;;6.70;;
5981;SDS011;3018;48.730;9.336;2022-11-15T01:44:35;9.23;;;7.13;;
5981;SDS011;3018;48.730;9.336;2022-11-15T01:47:03;11.88;;;6.50;;
5981;SDS011;3018;48.730;9.336;2022-11-15T01:49:31;8.88;;;7.63;;
5981;SDS011;3018;48.730;9.336;2022-11-15T01:52:00;10.77;;;8.20;;
5981;SDS011;3018;48.730;9.336;2022-11-15T01:54:27;9.75;;;8.27;;
5981;SDS011;3018;48.730;9.336;2022-11-15T01:56:55;10.32;;;9.10;;
5981;SDS011;3018;48.730;9.336;2022-11-15T01:59:22;8.73;;;7.80;;
5981;SDS011;3018;48.730;9.336;2022-11-15T02:01:48;8.73;;;7.60;;
5981;SDS011;3018;48.730;9.336;2022-11-15T02:04:16;10.43;;;7.28;;
5981;SDS011;3018;48.730;9.336;2022-11-15T02:06:42;8.73;;;7.70;;
5981;SDS011;3018;48.730;9.336;2022-11-15T02:09:10;9.63;;;7.70;;
5981;SDS011;3018;48.730;9.336;2022-11-15T02:11:37;7.05;;;6.38;;
5981;SDS011;3018;48.730;9.336;2022-11-15T02:14:03;9.80;;;6.40;;
5981;SDS011;3018;48.730;9.336;2022-11-15T02:16:31;9.00;;;5.93;;
5981;SDS011;3018;48.730;9.336;2022-11-15T02:19:02;7.78;;;5.28;;
5981;SDS011;3018;48.730;9.336;2022-11-15T02:21:35;5.95;;;4.82;;
5981;SDS011;3018;48.730;9.336;2022-11-15T02:24:27;6.03;;;4.60;;
5981;SDS011;3018;48.730;9.336;2022-11-15T02:27:08;5.32;;;4.93;;
5981;SDS011;3018;48.730;9.336;2022-11-15T02:29:46;5.63;;;5.13;;
5981;SDS011;3018;48.730;9.336;2022-11-15T02:32:17;6.07;;;4.70;;
5981;SDS011;3018;48.730;9.336;2022-11-15T02:34:47;8.65;;;5.82;;
5981;SDS011;3018;48.730;9.336;2022-11-15T02:37:19;5.43;;;4.95;;
5981;SDS011;3018;48.730;9.336;2022-11-15T02:39:49;6.13;;;5.32;;
5981;SDS011;3018;48.730;9.336;2022-11-15T02:42:17;7.32;;;5.00;;
5981;SDS011;3018;48.730;9.336;2022-11-15T02:45:01;6.70;;;5.75;;
5981;SDS011;3018;48.730;9.336;2022-11-15T02:47:30;6.40;;;5.18;;
5981;SDS011;3018;48.730;9.336;2022-11-15T02:49:58;4.90;;;4.47;;
5981;SDS011;3018;48.730;9.336;2022-11-15T02:52:24;6.30;;;4.68;;
5981;SDS011;3018;48.730;9.336;2022-11-15T02:54:52;4.78;;;4.32;;
5981;SDS011;3018;48.730;9.336;2022-11-15T02:57:19;6.45;;;5.13;;
5981;SDS011;3018;48.730;9.336;2022-11-15T02:59:55;4.95;;;4.55;;
5981;SDS011;3018;48.730;9.336;2022-11-15T03:02:29;5.60;;;3.90;;
5981;SDS011;3018;48.730;9.336;2022-11-15T03:05:00;4.50;;;4.10;;
5981;SDS011;3018;48.730;9.336;2022-11-15T03:07:29;6.05;;;4.70;;
5981;SDS011;3018;48.730;9.336;2022-11-15T03:09:57;8.73;;;5.63;;
5981;SDS011;3018;48.730;9.336;2022-11-15T03:12:26;6.25;;;5.25;;
5981;SDS011;3018;48.730;9.336;2022-11-15T03:14:55;9.68;;;6.30;;
5981;SDS011;3018;48.730;9.336;2022-11-15T03:17:22;8.18;;;6.03;;
5981;SDS011;3018;48.730;9.336;2022-11-15T03:19:50;12.18;;;7.25;;
5981;SDS011;3018;48.730;9.336;2022-11-15T03:22:19;9.13;;;7.53;;
5981;SDS011;3018;48.730;9.336;2022-11-15T03:24:46;8.68;;;7.30;;
5981;SDS011;3018;48.730;9.336;2022-11-15T03:27:14;10.48;;;8.07;;
5981;SDS011;3018;48.730;9.336;2022-11-15T03:29:42;12.60;;;8.27;;
5981;SDS011;3018;48.730;9.336;2022-11-15T03:32:11;9.13;;;7.80;;
5981;SDS011;3018;48.730;9.336;2022-11-15T03:34:39;9.63;;;8.00;;
5981;SDS011;3018;48.730;9.336;2022-11-15T03:37:06;9.95;;;7.43;;
5981;SDS011;3018;48.730;9.336;2022-11-15T03:39:35;8.52;;;7.63;;
5981;SDS011;3018;48.730;9.336;2022-11-15T03:42:04;9.63;;;8.63;;
5981;SDS011;3018;48.730;9.336;2022-11-15T03:44:36;11.35;;;7.38;;
5981;SDS011;3018;48.730;9.336;2022-11-15T03:47:03;11.23;;;8.73;;
5981;SDS011;3018;48.730;9.336;2022-11-15T03:49:31;13.05;;;8.50;;
5981;SDS011;3018;48.730;9.336;2022-11-15T03:51:59;12.55;;;9.13;;
5981;SDS011;3018;48.730;9.336;2022-11-15T03:54:25;13.95;;;9.50;;
5981;SDS011;3018;48.730;9.336;2022-11-15T03:56:52;13.82;;;8.40;;
5981;SDS011;3018;48.730;9.336;2022-11-15T03:59:19;13.68;;;9.43;;
5981;SDS011;3018;48.730;9.336;2022-11-15T04:01:45;11.15;;;8.43;;
5981;SDS011;3018;48.730;9.336;2022-11-15T04:04:11;12.32;;;8.07;;
5981;SDS011;3018;48.730;9.336;2022-11-15T04:06:38;10.75;;;7.72;;
5981;SDS011;3018;48.730;9.336;2022-11-15T04:09:04;8.80;;;7.32;;
5981;SDS011;3018;48.730;9.336;2022-11-15T04:11:30;9.45;;;7.60;;
5981;SDS011;3018;48.730;9.336;2022-11-15T04:13:58;12.52;;;7.72;;
5981;SDS011;3018;48.730;9.336;2022-11-15T04:16:24;8.15;;;7.30;;
5981;SDS011;3018;48.730;9.336;2022-11-15T04:18:50;9.50;;;7.25;;
5981;SDS011;3018;48.730;9.336;2022-11-15T04:21:30;8.40;;;7.57;;
5981;SDS011;3018;48.730;9.336;2022-11-15T04:24:14;7.70;;;6.97;;
5981;SDS011;3018;48.730;9.336;2022-11-15T04:26:41;7.20;;;6.53;;
5981;SDS011;3018;48.730;9.336;2022-11-15T04:29:08;8.70;;;7.47;;
5981;SDS011;3018;48.730;9.336;2022-11-15T04:31:52;10.50;;;7.15;;
5981;SDS011;3018;48.730;9.336;2022-11-15T04:34:18;7.32;;;6.63;;
5981;SDS011;3018;48.730;9.336;2022-11-15T04:36:45;8.00;;;7.07;;
5981;SDS011;3018;48.730;9.336;2022-11-15T04:39:29;9.98;;;6.85;;
5981;SDS011;3018;48.730;9.336;2022-11-15T04:41:55;7.70;;;6.28;;
5981;SDS011;3018;48.730;9.336;2022-11-15T04:44:22;6.70;;;6.18;;
5981;SDS011;3018;48.730;9.336;2022-11-15T04:46:49;7.05;;;6.35;;
5981;SDS011;3018;48.730;9.336;2022-11-15T04:49:15;8.98;;;5.97;;
5981;SDS011;3018;48.730;9.336;2022-11-15T04:51:41;6.95;;;5.95;;
5981;SDS011;3018;48.730;9.336;2022-11-15T04:54:07;5.80;;;5.30;;
5981;SDS011;3018;48.730;9.336;2022-11-15T04:56:34;7.13;;;5.68;;
5981;SDS011;3018;48.730;9.336;2022-11-15T04:59:00;6.78;;;5.25;;
5981;SDS011;3018;48.730;9.336;2022-11-15T05:01:28;5.60;;;5.10;;
5981;SDS011;3018;48.730;9.336;2022-11-15T05:03:54;5.07;;;4.68;;
5981;SDS011;3018;48.730;9.336;2022-11-15T05:06:38;10.80;;;4.90;;
5981;SDS011;3018;48.730;9.336;2022-11-15T05:09:04;5.60;;;5.07;;
5981;SDS011;3018;48.730;9.336;2022-11-15T05:11:31;8.38;;;5.70;;
5981;SDS011;3018;48.730;9.336;2022-11-15T05:13:57;7.18;;;5.22;;
5981;SDS011;3018;48.730;9.336;2022-11-15T05:16:23;6.07;;;5.28;;
5981;SDS011;3018;48.730;9.336;2022-11-15T05:18:51;7.80;;;6.10;;
5981;SDS011;3018;48.730;9.336;2022-11-15T05:21:18;12.35;;;6.97;;
5981;SDS011;3018;48.730;9.336;2022-11-15T05:23:44;8.55;;;7.22;;
5981;SDS011;3018;48.730;9.336;2022-11-15T05:26:10;8.70;;;7.30;;
5981;SDS011;3018;48.730;9.336;2022-11-15T05:28:37;8.82;;;7.78;;
5981;SDS011;3018;48.730;9.336;2022-11-15T05:31:03;13.63;;;9.98;;
5981;SDS011;3018;48.730;9.336;2022-11-15T05:33:30;19.77;;;12.70;;
5981;SDS011;3018;48.730;9.336;2022-11-15T05:36:00;25.05;;;18.20;;
5981;SDS011;3018;48.730;9.336;2022-11-15T05:38:27;14.43;;;11.18;;
5981;SDS011;3018;48.730;9.336;2022-11-15T05:40:53;11.68;;;8.02;;
5981;SDS011;3018;48.730;9.336;2022-11-15T05:43:20;12.93;;;8.38;;
5981;SDS011;3018;48.730;9.336;2022-11-15T05:45:46;7.95;;;7.18;;
5981;SDS011;3018;48.730;9.336;2022-11-15T05:48:13;11.63;;;7.80;;
5981;SDS011;3018;48.730;9.336;2022-11-15T05:50:41;10.02;;;7.40;;
5981;SDS011;3018;48.730;9.336;2022-11-15T05:53:09;9.50;;;7.75;;
5981;SDS011;3018;48.730;9.336;2022-11-15T05:55:36;7.97;;;7.18;;
5981;SDS011;3018;48.730;9.336;2022-11-15T05:58:03;10.98;;;7.97;;
5981;SDS011;3018;48.730;9.336;2022-11-15T06:00:29;9.52;;;7.85;;
5981;SDS011;3018;48.730;9.336;2022-11-15T06:02:56;8.25;;;7.28;;
5981;SDS011;3018;48.730;9.336;2022-11-15T06:05:22;10.38;;;7.97;;
5981;SDS011;3018;48.730;9.336;2022-11-15T06:07:48;12.70;;;8.88;;
5981;SDS011;3018;48.730;9.336;2022-11-15T06:10:16;10.98;;;7.97;;
5981;SDS011;3018;48.730;9.336;2022-11-15T06:12:42;13.73;;;8.38;;
5981;SDS011;3018;48.730;9.336;2022-11-15T06:15:09;13.35;;;8.63;;
5981;SDS011;3018;48.730;9.336;2022-11-15T06:17:35;12.82;;;8.18;;
5981;SDS011;3018;48.730;9.336;2022-11-15T06:20:01;12.00;;;8.25;;
5981;SDS011;3018;48.730;9.336;2022-11-15T06:22:28;10.27;;;7.80;;
5981;SDS011;3018;48.730;9.336;2022-11-15T06:24:54;10.07;;;8.27;;
5981;SDS011;3018;48.730;9.336;2022-11-15T06:27:22;8.82;;;7.30;;
5981;SDS011;3018;48.730;9.336;2022-11-15T06:29:48;12.52;;;8.60;;
5981;SDS011;3018;48.730;9.336;2022-11-15T06:32:14;12.35;;;8.38;;
5981;SDS011;3018;48.730;9.336;2022-11-15T06:34:41;11.60;;;7.47;;
5981;SDS011;3018;48.730;9.336;2022-11-15T06:37:07;8.93;;;7.63;;
5981;SDS011;3018;48.730;9.336;2022-11-15T06:39:33;11.73;;;8.25;;
5981;SDS011;3018;48.730;9.336;2022-11-15T06:41:59;10.20;;;8.10;;
5981;SDS011;3018;48.730;9.336;2022-11-15T06:44:27;12.48;;;8.75;;
5981;SDS011;3018;48.730;9.336;2022-11-15T06:46:53;9.48;;;7.50;;
5981;SDS011;3018;48.730;9.336;2022-11-15T06:49:20;8.60;;;7.60;;
5981;SDS011;3018;48.730;9.336;2022-11-15T06:51:46;9.52;;;7.57;;
5981;SDS011;3018;48.730;9.336;2022-11-15T06:54:12;11.27;;;8.23;;
5981;SDS011;3018;48.730;9.336;2022-11-15T06:56:39;10.95;;;7.72;;
5981;SDS011;3018;48.730;9.336;2022-11-15T06:59:05;8.93;;;7.93;;
5981;SDS011;3018;48.730;9.336;2022-11-15T07:01:32;10.73;;;8.10;;
5981;SDS011;3018;48.730;9.336;2022-11-15T07:03:59;13.90;;;9.60;;
5981;SDS011;3018;48.730;9.336;2022-11-15T07:06:25;13.52;;;9.20;;
5981;SDS011;3018;48.730;9.336;2022-11-15T07:08:51;11.93;;;8.88;;
5981;SDS011;3018;48.730;9.336;2022-11-15T07:11:17;16.30;;;10.00;;
5981;SDS011;3018;48.730;9.336;2022-11-15T07:13:44;19.13;;;11.65;;
5981;SDS011;3018;48.730;9.336;2022-11-15T07:16:10;16.58;;;11.07;;
5981;SDS011;3018;48.730;9.336;2022-11-15T07:18:38;15.48;;;11.25;;
5981;SDS011;3018;48.730;9.336;2022-11-15T07:21:05;14.27;;;10.70;;
5981;SDS011;3018;48.730;9.336;2022-11-15T07:23:31;15.15;;;9.60;;
5981;SDS011;3018;48.730;9.336;2022-11-15T07:25:58;15.95;;;9.20;;
5981;SDS011;3018;48.730;9.336;2022-11-15T07:28:24;12.32;;;9.02;;
5981;SDS011;3018;48.730;9.336;2022-11-15T07:30:50;11.38;;;8.68;;
5981;SDS011;3018;48.730;9.336;2022-11-15T07:33:16;13.63;;;8.80;;
5981;SDS011;3018;48.730;9.336;2022-11-15T07:35:44;12.40;;;8.60;;
5981;SDS011;3018;48.730;9.336;2022-11-15T07:38:14;14.02;;;8.27;;
5981;SDS011;3018;48.730;9.336;2022-11-15T07:40:40;11.32;;;8.40;;
5981;SDS011;3018;48.730;9.336;2022-11-15T07:43:07;8.75;;;7.80;;
5981;SDS011;3018;48.730;9.336;2022-11-15T07:45:34;10.75;;;7.22;;
5981;SDS011;3018;48.730;9.336;2022-11-15T07:48:05;10.18;;;7.82;;
5981;SDS011;3018;48.730;9.336;2022-11-15T07:50:32;13.68;;;7.90;;
5981;SDS011;3018;48.730;9.336;2022-11-15T07:52:59;11.00;;;8.77;;
5981;SDS011;3018;48.730;9.336;2022-11-15T07:55:26;16.08;;;9.32;;
5981;SDS011;3018;48.730;9.336;2022-11-15T07:57:53;14.63;;;8.23;;
5981;SDS011;3018;48.730;9.336;2022-11-15T08:00:19;12.35;;;7.75;;
5981;SDS011;3018;48.730;9.336;2022-11-15T08:02:46;14.23;;;8.07;;
5981;SDS011;3018;48.730;9.336;2022-11-15T08:05:12;18.17;;;8.40;;
5981;SDS011;3018;48.730;9.336;2022-11-15T08:07:38;15.13;;;8.10;;
5981;SDS011;3018;48.730;9.336;2022-11-15T08:10:07;13.93;;;7.65;;
5981;SDS011;3018;48.730;9.336;2022-11-15T08:12:33;13.10;;;8.10;;
5981;SDS011;3018;48.730;9.336;2022-11-15T08:15:00;10.77;;;8.00;;
5981;SDS011;3018;48.730;9.336;2022-11-15T08:17:27;10.27;;;7.25;;
5981;SDS011;3018;48.730;9.336;2022-11-15T08:19:56;8.75;;;7.22;;
5981;SDS011;3018;48.730;9.336;2022-11-15T08:22:23;10.80;;;7.32;;
5981;SDS011;3018;48.730;9.336;2022-11-15T08:24:49;9.68;;;7.35;;
5981;SDS011;3018;48.730;9.336;2022-11-15T08:27:17;13.30;;;7.45;;
5981;SDS011;3018;48.730;9.336;2022-11-15T08:29:43;9.68;;;7.10;;
5981;SDS011;3018;48.730;9.336;2022-11-15T08:32:10;13.18;;;7.47;;
5981;SDS011;3018;48.730;9.336;2022-11-15T08:34:37;10.15;;;6.90;;
5981;SDS011;3018;48.730;9.336;2022-11-15T08:37:03;9.68;;;6.75;;
5981;SDS011;3018;48.730;9.336;2022-11-15T08:39:29;9.13;;;7.50;;
5981;SDS011;3018;48.730;9.336;2022-11-15T08:41:56;8.35;;;7.00;;
5981;SDS011;3018;48.730;9.336;2022-11-15T08:44:23;9.65;;;7.15;;
5981;SDS011;3018;48.730;9.336;2022-11-15T08:46:50;11.07;;;7.32;;
5981;SDS011;3018;48.730;9.336;2022-11-15T08:49:16;10.45;;;7.80;;
5981;SDS011;3018;48.730;9.336;2022-11-15T08:51:42;12.50;;;7.75;;
5981;SDS011;3018;48.730;9.336;2022-11-15T08:54:08;10.65;;;7.13;;
5981;SDS011;3018;48.730;9.336;2022-11-15T08:56:35;10.63;;;7.90;;
5981;SDS011;3018;48.730;9.336;2022-11-15T08:59:01;14.57;;;8.63;;
5981;SDS011;3018;48.730;9.336;2022-11-15T09:01:28;23.75;;;15.68;;
5981;SDS011;3018;48.730;9.336;2022-11-15T09:03:55;11.35;;;8.20;;
5981;SDS011;3018;48.730;9.336;2022-11-15T09:06:21;12.93;;;7.90;;
5981;SDS011;3018;48.730;9.336;2022-11-15T09:08:47;11.85;;;8.10;;
5981;SDS011;3018;48.730;9.336;2022-11-15T09:11:14;9.50;;;7.28;;
5981;SDS011;3018;48.730;9.336;2022-11-15T09:13:41;10.07;;;7.45;;
5981;SDS011;3018;48.730;9.336;2022-11-15T09:16:07;11.85;;;6.78;;
5981;SDS011;3018;48.730;9.336;2022-11-15T09:18:35;16.40;;;7.22;;
5981;SDS011;3018;48.730;9.336;2022-11-15T09:21:01;14.88;;;6.65;;
5981;SDS011;3018;48.730;9.336;2022-11-15T09:23:29;10.88;;;7.20;;
5981;SDS011;3018;48.730;9.336;2022-11-15T09:25:58;13.43;;;7.47;;
5981;SDS011;3018;48.730;9.336;2022-11-15T09:28:24;9.40;;;6.75;;
5981;SDS011;3018;48.730;9.336;2022-11-15T09:30:50;10.55;;;7.40;;
5981;SDS011;3018;48.730;9.336;2022-11-15T09:33:17;13.35;;;7.30;;
5981;SDS011;3018;48.730;9.336;2022-11-15T09:35:44;10.02;;;7.00;;
5981;SDS011;3018;48.730;9.336;2022-11-15T09:38:11;8.60;;;7.30;;
5981;SDS011;3018;48.730;9.336;2022-11-15T09:40:37;12.80;;;7.32;;
5981;SDS011;3018;48.730;9.336;2022-11-15T09:45:52;11.82;;;7.80;;
5981;SDS011;3018;48.730;9.336;2022-11-15T09:48:27;10.18;;;8.30;;
5981;SDS011;3018;48.730;9.336;2022-11-15T09:50:59;11.52;;;7.88;;
5981;SDS011;3018;48.730;9.336;2022-11-15T09:53:26;15.68;;;8.13;;
5981;SDS011;3018;48.730;9.336;2022-11-15T09:55:57;9.88;;;8.13;;
5981;SDS011;3018;48.730;9.336;2022-11-15T09:58:26;12.13;;;8.23;;
5981;SDS011;3018;48.730;9.336;2022-11-15T10:00:54;14.43;;;9.27;;
5981;SDS011;3018;48.730;9.336;2022-11-15T10:03:23;10.88;;;8.57;;
5981;SDS011;3018;48.730;9.336;2022-11-15T10:05:52;12.18;;;7.82;;
5981;SDS011;3018;48.730;9.336;2022-11-15T10:08:24;11.77;;;8.40;;
5981;SDS011;3018;48.730;9.336;2022-11-15T10:10:52;13.25;;;8.18;;
5981;SDS011;3018;48.730;9.336;2022-11-15T10:13:22;12.38;;;7.75;;
5981;SDS011;3018;48.730;9.336;2022-11-15T10:15:49;12.15;;;8.07;;
5981;SDS011;3018;48.730;9.336;2022-11-15T10:18:16;13.05;;;7.82;;
5981;SDS011;3018;48.730;9.336;2022-11-15T10:20:47;10.73;;;6.72;;
5981;SDS011;3018;48.730;9.336;2022-11-15T10:23:14;12.60;;;7.97;;
5981;SDS011;3018;48.730;9.336;2022-11-15T10:25:43;12.00;;;7.50;;
5981;SDS011;3018;48.730;9.336;2022-11-15T10:28:11;9.45;;;7.45;;
5981;SDS011;3018;48.730;9.336;2022-11-15T10:30:39;11.20;;;8.02;;
5981;SDS011;3018;48.730;9.336;2022-11-15T10:33:11;15.23;;;8.13;;
5981;SDS011;3018;48.730;9.336;2022-11-15T10:35:38;11.40;;;8.10;;
5981;SDS011;3018;48.730;9.336;2022-11-15T10:38:05;9.90;;;8.00;;
5981;SDS011;3018;48.730;9.336;2022-11-15T10:40:32;12.48;;;8.18;;
5981;SDS011;3018;48.730;9.336;2022-11-15T10:43:05;15.13;;;8.40;;
5981;SDS011;3018;48.730;9.336;2022-11-15T10:45:32;11.07;;;7.80;;
5981;SDS011;3018;48.730;9.336;2022-11-15T10:50:41;10.80;;;7.90;;
5981;SDS011;3018;48.730;9.336;2022-11-15T10:53:11;16.02;;;7.70;;
5981;SDS011;3018;48.730;9.336;2022-11-15T10:55:38;15.75;;;8.35;;
5981;SDS011;3018;48.730;9.336;2022-11-15T11:00:52;15.25;;;8.23;;
5981;SDS011;3018;48.730;9.336;2022-11-15T11:03:28;15.23;;;8.75;;
5981;SDS011;3018;48.730;9.336;2022-11-15T11:06:05;16.70;;;7.90;;
5981;SDS011;3018;48.730;9.336;2022-11-15T11:08:32;12.23;;;8.30;;
5981;SDS011;3018;48.730;9.336;2022-11-15T11:10:59;8.30;;;7.50;;
5981;SDS011;3018;48.730;9.336;2022-11-15T11:13:26;10.07;;;7.65;;
5981;SDS011;3018;48.730;9.336;2022-11-15T11:15:55;12.05;;;7.53;;
5981;SDS011;3018;48.730;9.336;2022-11-15T11:18:24;11.45;;;7.80;;
5981;SDS011;3018;48.730;9.336;2022-11-15T11:20:54;12.35;;;7.75;;
5981;SDS011;3018;48.730;9.336;2022-11-15T11:23:31;8.32;;;7.10;;
5981;SDS011;3018;48.730;9.336;2022-11-15T11:26:01;7.72;;;6.93;;
5981;SDS011;3018;48.730;9.336;2022-11-15T11:28:36;11.98;;;7.97;;
5981;SDS011;3018;48.730;9.336;2022-11-15T11:31:08;10.52;;;8.30;;
5981;SDS011;3018;48.730;9.336;2022-11-15T11:33:40;11.18;;;7.40;;
5981;SDS011;3018;48.730;9.336;2022-11-15T11:36:14;12.70;;;7.93;;
5981;SDS011;3018;48.730;9.336;2022-11-15T11:38:49;13.32;;;7.57;;
5981;SDS011;3018;48.730;9.336;2022-11-15T11:41:20;8.63;;;6.25;;
5981;SDS011;3018;48.730;9.336;2022-11-15T11:43:51;10.05;;;7.53;;
5981;SDS011;3018;48.730;9.336;2022-11-15T11:46:33;9.15;;;6.60;;
5981;SDS011;3018;48.730;9.336;2022-11-15T11:49:03;7.65;;;6.43;;
5981;SDS011;3018;48.730;9.336;2022-11-15T11:51:32;8.18;;;6.55;;
5981;SDS011;3018;48.730;9.336;2022-11-15T11:54:03;9.57;;;6.75;;
5981;SDS011;3018;48.730;9.336;2022-11-15T11:56:31;9.73;;;6.72;;
5981;SDS011;3018;48.730;9.336;2022-11-15T11:59:00;25.27;;;15.45;;
5981;SDS011;3018;48.730;9.336;2022-11-15T12:01:28;12.63;;;7.35;;
5981;SDS011;3018;48.730;9.336;2022-11-15T12:03:59;22.92;;;10.55;;
5981;SDS011;3018;48.730;9.336;2022-11-15T12:06:33;33.45;;;15.15;;
5981;SDS011;3018;48.730;9.336;2022-11-15T12:09:02;11.63;;;7.78;;
5981;SDS011;3018;48.730;9.336;2022-11-15T12:11:32;38.17;;;18.75;;
5981;SDS011;3018;48.730;9.336;2022-11-15T12:14:03;19.25;;;10.07;;
5981;SDS011;3018;48.730;9.336;2022-11-15T12:16:30;9.93;;;7.03;;
5981;SDS011;3018;48.730;9.336;2022-11-15T12:18:59;19.17;;;11.52;;
5981;SDS011;3018;48.730;9.336;2022-11-15T12:21:28;13.95;;;9.95;;
5981;SDS011;3018;48.730;9.336;2022-11-15T12:23:59;8.55;;;7.00;;
5981;SDS011;3018;48.730;9.336;2022-11-15T12:26:26;15.73;;;8.32;;
5981;SDS011;3018;48.730;9.336;2022-11-15T12:28:53;10.40;;;7.30;;
5981;SDS011;3018;48.730;9.336;2022-11-15T12:31:23;11.77;;;7.47;;
5981;SDS011;3018;48.730;9.336;2022-11-15T12:33:50;16.17;;;7.72;;
5981;SDS011;3018;48.730;9.336;2022-11-15T12:36:32;15.95;;;8.38;;
5981;SDS011;3018;48.730;9.336;2022-11-15T12:39:00;10.25;;;7.45;;
5981;SDS011;3018;48.730;9.336;2022-11-15T12:41:28;11.43;;;7.97;;
5981;SDS011;3018;48.730;9.336;2022-11-15T12:43:54;11.07;;;7.90;;
5981;SDS011;3018;48.730;9.336;2022-11-15T12:49:07;16.75;;;7.85;;
5981;SDS011;3018;48.730;9.336;2022-11-15T12:57:30;10.88;;;7.75;;
5981;SDS011;3018;48.730;9.336;2022-11-15T12:59:59;11.50;;;8.10;;
5981;SDS011;3018;48.730;9.336;2022-11-15T13:02:29;16.85;;;9.55;;
5981;SDS011;3018;48.730;9.336;2022-11-15T13:07:55;10.48;;;7.30;;
5981;SDS011;3018;48.730;9.336;2022-11-15T13:10:29;13.32;;;6.78;;
5981;SDS011;3018;48.730;9.336;2022-11-15T13:12:58;10.57;;;6.82;;
5981;SDS011;3018;48.730;9.336;2022-11-15T13:15:32;8.48;;;6.55;;
5981;SDS011;3018;48.730;9.336;2022-11-15T13:18:18;10.13;;;6.35;;
5981;SDS011;3018;48.730;9.336;2022-11-15T13:20:45;9.57;;;5.75;;
5981;SDS011;3018;48.730;9.336;2022-11-15T13:23:12;6.97;;;5.35;;
5981;SDS011;3018;48.730;9.336;2022-11-15T13:28:30;12.80;;;7.10;;
5981;SDS011;3018;48.730;9.336;2022-11-15T13:30:58;9.30;;;6.72;;
5981;SDS011;3018;48.730;9.336;2022-11-15T13:33:25;9.20;;;7.10;;
5981;SDS011;3018;48.730;9.336;2022-11-15T13:35:54;11.23;;;6.60;;
5981;SDS011;3018;48.730;9.336;2022-11-15T13:38:25;15.57;;;7.55;;
5981;SDS011;3018;48.730;9.336;2022-11-15T13:40:52;11.02;;;7.07;;
5981;SDS011;3018;48.730;9.336;2022-11-15T13:43:23;14.18;;;8.38;;
5981;SDS011;3018;48.730;9.336;2022-11-15T13:46:04;12.45;;;8.00;;
5981;SDS011;3018;48.730;9.336;2022-11-15T13:48:30;8.93;;;7.18;;
5981;SDS011;3018;48.730;9.336;2022-11-15T13:50:58;13.95;;;6.88;;
5981;SDS011;3018;48.730;9.336;2022-11-15T13:53:25;8.27;;;6.88;;
5981;SDS011;3018;48.730;9.336;2022-11-15T13:55:51;13.38;;;6.18;;
5981;SDS011;3018;48.730;9.336;2022-11-15T13:58:19;12.88;;;6.15;;
5981;SDS011;3018;48.730;9.336;2022-11-15T14:00:46;6.68;;;5.55;;
5981;SDS011;3018;48.730;9.336;2022-11-15T14:03:17;9.32;;;5.47;;
5981;SDS011;3018;48.730;9.336;2022-11-15T14:05:44;6.28;;;4.82;;
5981;SDS011;3018;48.730;9.336;2022-11-15T14:08:20;9.52;;;5.38;;
5981;SDS011;3018;48.730;9.336;2022-11-15T14:10:47;7.53;;;4.88;;
5981;SDS011;3018;48.730;9.336;2022-11-15T14:13:26;9.35;;;4.82;;
5981;SDS011;3018;48.730;9.336;2022-11-15T14:15:52;6.43;;;4.88;;
5981;SDS011;3018;48.730;9.336;2022-11-15T14:21:06;12.55;;;4.93;;
5981;SDS011;3018;48.730;9.336;2022-11-15T14:23:33;5.72;;;5.07;;
5981;SDS011;3018;48.730;9.336;2022-11-15T14:25:59;6.60;;;4.88;;
5981;SDS011;3018;48.730;9.336;2022-11-15T14:28:29;5.93;;;4.88;;
5981;SDS011;3018;48.730;9.336;2022-11-15T14:30:56;10.40;;;5.35;;
5981;SDS011;3018;48.730;9.336;2022-11-15T14:33:23;9.50;;;5.65;;
5981;SDS011;3018;48.730;9.336;2022-11-15T14:35:51;9.43;;;5.78;;
5981;SDS011;3018;48.730;9.336;2022-11-15T14:38:19;6.72;;;5.20;;
5981;SDS011;3018;48.730;9.336;2022-11-15T14:40:45;8.32;;;5.43;;
5981;SDS011;3018;48.730;9.336;2022-11-15T14:43:12;10.85;;;6.53;;
5981;SDS011;3018;48.730;9.336;2022-11-15T14:45:38;13.88;;;7.78;;
5981;SDS011;3018;48.730;9.336;2022-11-15T14:48:05;15.05;;;7.97;;
5981;SDS011;3018;48.730;9.336;2022-11-15T14:50:31;16.35;;;7.20;;
5981;SDS011;3018;48.730;9.336;2022-11-15T14:52:58;14.65;;;8.07;;
5981;SDS011;3018;48.730;9.336;2022-11-15T14:55:26;14.00;;;6.43;;
5981;SDS011;3018;48.730;9.336;2022-11-15T14:57:53;14.13;;;7.90;;
5981;SDS011;3018;48.730;9.336;2022-11-15T15:00:20;11.55;;;7.05;;
5981;SDS011;3018;48.730;9.336;2022-11-15T15:02:47;10.18;;;7.40;;
5981;SDS011;3018;48.730;9.336;2022-11-15T15:05:14;7.60;;;5.90;;
5981;SDS011;3018;48.730;9.336;2022-11-15T15:07:40;9.70;;;7.07;;
5981;SDS011;3018;48.730;9.336;2022-11-15T15:10:07;15.82;;;7.13;;
5981;SDS011;3018;48.730;9.336;2022-11-15T15:12:35;7.45;;;5.82;;
5981;SDS011;3018;48.730;9.336;2022-11-15T15:15:01;11.63;;;7.20;;
5981;SDS011;3018;48.730;9.336;2022-11-15T15:17:27;12.20;;;6.95;;
5981;SDS011;3018;48.730;9.336;2022-11-15T15:19:54;13.27;;;6.10;;
5981;SDS011;3018;48.730;9.336;2022-11-15T15:22:20;9.95;;;6.50;;
5981;SDS011;3018;48.730;9.336;2022-11-15T15:24:50;9.52;;;6.30;;
5981;SDS011;3018;48.730;9.336;2022-11-15T15:27:16;7.00;;;5.95;;
5981;SDS011;3018;48.730;9.336;2022-11-15T15:29:44;10.43;;;7.10;;
5981;SDS011;3018;48.730;9.336;2022-11-15T15:32:10;10.48;;;6.28;;
5981;SDS011;3018;48.730;9.336;2022-11-15T15:34:38;10.93;;;6.35;;
5981;SDS011;3018;48.730;9.336;2022-11-15T15:37:08;10.60;;;6.25;;